Terminal Aerodrome Forecast
Issued by NWS

Current Version | Previous Version | Text Only | Print | Product List | Glossary On
Versions: 1 2 3 4 5 6 7 8 9 10 11 12 13 14 15 16 17 18
000
FTUS45 KSLC 291725
TAFBCE
TAF
KBCE 291725Z 2918/3018 15010G18KT P6SM VCSH SCT070 BKN100
     FM300100 29010KT P6SM SCT070 BKN080=

USA.gov is the U.S. government's official web portal to all federal, state and local government web resources and services.